sensor_id;sensor_type;location;lat;lon;timestamp;P1;durP1;ratioP1;P2;durP2;ratioP2
173;SDS011;75;48.784;9.364;2023-03-01T00:01:30;50.47;;;24.93;;
173;SDS011;75;48.784;9.364;2023-03-01T00:04:15;54.13;;;26.53;;
173;SDS011;75;48.784;9.364;2023-03-01T00:07:00;50.20;;;27.00;;
173;SDS011;75;48.784;9.364;2023-03-01T00:09:45;52.87;;;26.17;;
173;SDS011;75;48.784;9.364;2023-03-01T00:12:30;49.63;;;26.80;;
173;SDS011;75;48.784;9.364;2023-03-01T00:15:15;109.83;;;41.90;;
173;SDS011;75;48.784;9.364;2023-03-01T00:18:00;123.97;;;38.90;;
173;SDS011;75;48.784;9.364;2023-03-01T00:20:51;74.90;;;32.50;;
173;SDS011;75;48.784;9.364;2023-03-01T00:23:37;71.30;;;32.70;;
173;SDS011;75;48.784;9.364;2023-03-01T00:26:22;52.00;;;25.27;;
173;SDS011;75;48.784;9.364;2023-03-01T00:29:07;50.67;;;25.27;;
173;SDS011;75;48.784;9.364;2023-03-01T00:31:52;72.93;;;30.17;;
173;SDS011;75;48.784;9.364;2023-03-01T00:34:37;92.47;;;36.67;;
173;SDS011;75;48.784;9.364;2023-03-01T00:37:22;59.13;;;27.07;;
173;SDS011;75;48.784;9.364;2023-03-01T00:40:07;46.83;;;25.17;;
173;SDS011;75;48.784;9.364;2023-03-01T00:42:52;58.70;;;28.90;;
173;SDS011;75;48.784;9.364;2023-03-01T00:45:36;55.60;;;28.60;;
173;SDS011;75;48.784;9.364;2023-03-01T00:48:21;61.73;;;28.40;;
173;SDS011;75;48.784;9.364;2023-03-01T00:51:10;57.43;;;27.40;;
173;SDS011;75;48.784;9.364;2023-03-01T00:53:56;72.13;;;29.97;;
173;SDS011;75;48.784;9.364;2023-03-01T00:56:41;66.03;;;28.33;;
173;SDS011;75;48.784;9.364;2023-03-01T00:59:25;67.30;;;30.90;;
173;SDS011;75;48.784;9.364;2023-03-01T01:02:10;71.97;;;29.50;;
173;SDS011;75;48.784;9.364;2023-03-01T01:04:55;81.53;;;31.23;;
173;SDS011;75;48.784;9.364;2023-03-01T01:07:39;70.27;;;31.60;;
173;SDS011;75;48.784;9.364;2023-03-01T01:10:24;63.47;;;32.77;;
173;SDS011;75;48.784;9.364;2023-03-01T01:13:09;53.83;;;29.63;;
173;SDS011;75;48.784;9.364;2023-03-01T01:15:53;58.30;;;29.37;;
173;SDS011;75;48.784;9.364;2023-03-01T01:18:38;55.63;;;28.07;;
173;SDS011;75;48.784;9.364;2023-03-01T01:21:24;51.63;;;27.60;;
173;SDS011;75;48.784;9.364;2023-03-01T01:24:09;54.73;;;25.20;;
173;SDS011;75;48.784;9.364;2023-03-01T01:26:54;54.33;;;28.07;;
173;SDS011;75;48.784;9.364;2023-03-01T01:29:39;48.33;;;24.70;;
173;SDS011;75;48.784;9.364;2023-03-01T01:32:25;50.67;;;25.70;;
173;SDS011;75;48.784;9.364;2023-03-01T01:35:10;50.50;;;25.30;;
173;SDS011;75;48.784;9.364;2023-03-01T01:37:55;59.40;;;26.37;;
173;SDS011;75;48.784;9.364;2023-03-01T01:40:46;57.23;;;27.97;;
173;SDS011;75;48.784;9.364;2023-03-01T01:43:33;52.73;;;24.67;;
173;SDS011;75;48.784;9.364;2023-03-01T01:52:10;48.90;;;25.93;;
173;SDS011;75;48.784;9.364;2023-03-01T01:57:43;46.17;;;25.80;;
173;SDS011;75;48.784;9.364;2023-03-01T02:00:28;41.13;;;24.43;;
173;SDS011;75;48.784;9.364;2023-03-01T02:03:14;44.13;;;24.20;;
173;SDS011;75;48.784;9.364;2023-03-01T02:06:12;42.80;;;21.77;;
173;SDS011;75;48.784;9.364;2023-03-01T02:08:59;44.67;;;25.67;;
173;SDS011;75;48.784;9.364;2023-03-01T02:11:44;43.80;;;24.30;;
173;SDS011;75;48.784;9.364;2023-03-01T02:14:29;42.73;;;24.80;;
173;SDS011;75;48.784;9.364;2023-03-01T02:17:14;43.13;;;23.77;;
173;SDS011;75;48.784;9.364;2023-03-01T02:23:03;43.20;;;25.40;;
173;SDS011;75;48.784;9.364;2023-03-01T02:28:40;42.77;;;24.50;;
173;SDS011;75;48.784;9.364;2023-03-01T02:31:25;45.00;;;25.67;;
173;SDS011;75;48.784;9.364;2023-03-01T02:34:25;42.43;;;25.13;;
173;SDS011;75;48.784;9.364;2023-03-01T02:37:14;43.03;;;24.67;;
173;SDS011;75;48.784;9.364;2023-03-01T02:40:01;46.20;;;26.00;;
173;SDS011;75;48.784;9.364;2023-03-01T02:42:48;42.93;;;24.50;;
173;SDS011;75;48.784;9.364;2023-03-01T02:45:34;42.73;;;25.47;;
173;SDS011;75;48.784;9.364;2023-03-01T02:48:19;39.70;;;24.17;;
173;SDS011;75;48.784;9.364;2023-03-01T02:51:06;41.63;;;24.10;;
173;SDS011;75;48.784;9.364;2023-03-01T02:56:39;42.23;;;24.10;;
173;SDS011;75;48.784;9.364;2023-03-01T02:59:26;40.07;;;23.43;;
173;SDS011;75;48.784;9.364;2023-03-01T03:02:19;40.60;;;23.73;;
173;SDS011;75;48.784;9.364;2023-03-01T03:05:20;43.37;;;24.83;;
173;SDS011;75;48.784;9.364;2023-03-01T03:08:05;41.17;;;24.73;;
173;SDS011;75;48.784;9.364;2023-03-01T03:10:51;42.50;;;24.80;;
173;SDS011;75;48.784;9.364;2023-03-01T03:13:36;41.70;;;25.10;;
173;SDS011;75;48.784;9.364;2023-03-01T03:16:21;45.67;;;26.23;;
173;SDS011;75;48.784;9.364;2023-03-01T03:19:06;44.40;;;24.77;;
173;SDS011;75;48.784;9.364;2023-03-01T03:21:50;41.67;;;24.77;;
173;SDS011;75;48.784;9.364;2023-03-01T03:24:35;42.80;;;25.87;;
173;SDS011;75;48.784;9.364;2023-03-01T03:27:22;39.27;;;24.17;;
173;SDS011;75;48.784;9.364;2023-03-01T03:30:07;43.53;;;24.80;;
173;SDS011;75;48.784;9.364;2023-03-01T03:32:52;42.97;;;25.17;;
173;SDS011;75;48.784;9.364;2023-03-01T03:35:41;43.17;;;24.83;;
173;SDS011;75;48.784;9.364;2023-03-01T03:38:26;43.13;;;25.47;;
173;SDS011;75;48.784;9.364;2023-03-01T03:41:11;41.17;;;25.10;;
173;SDS011;75;48.784;9.364;2023-03-01T03:43:56;44.57;;;24.80;;
173;SDS011;75;48.784;9.364;2023-03-01T03:46:41;42.33;;;25.17;;
173;SDS011;75;48.784;9.364;2023-03-01T03:49:25;47.40;;;26.13;;
173;SDS011;75;48.784;9.364;2023-03-01T03:52:10;45.37;;;26.60;;
173;SDS011;75;48.784;9.364;2023-03-01T03:54:57;45.10;;;25.83;;
173;SDS011;75;48.784;9.364;2023-03-01T03:57:42;47.27;;;26.57;;
173;SDS011;75;48.784;9.364;2023-03-01T04:00:27;43.90;;;26.03;;
173;SDS011;75;48.784;9.364;2023-03-01T04:03:13;48.00;;;25.63;;
173;SDS011;75;48.784;9.364;2023-03-01T04:05:58;41.70;;;24.90;;
173;SDS011;75;48.784;9.364;2023-03-01T04:08:43;43.60;;;25.13;;
173;SDS011;75;48.784;9.364;2023-03-01T04:11:28;45.17;;;25.17;;
173;SDS011;75;48.784;9.364;2023-03-01T04:14:12;43.03;;;25.67;;
173;SDS011;75;48.784;9.364;2023-03-01T04:16:57;43.97;;;25.63;;
173;SDS011;75;48.784;9.364;2023-03-01T04:19:42;44.60;;;26.10;;
173;SDS011;75;48.784;9.364;2023-03-01T04:22:27;40.60;;;24.63;;
173;SDS011;75;48.784;9.364;2023-03-01T04:25:13;44.20;;;25.60;;
173;SDS011;75;48.784;9.364;2023-03-01T04:27:58;43.53;;;25.20;;
173;SDS011;75;48.784;9.364;2023-03-01T04:30:42;44.60;;;24.97;;
173;SDS011;75;48.784;9.364;2023-03-01T04:33:27;45.07;;;24.33;;
173;SDS011;75;48.784;9.364;2023-03-01T04:36:12;48.37;;;26.30;;
173;SDS011;75;48.784;9.364;2023-03-01T04:38:58;46.37;;;25.03;;
173;SDS011;75;48.784;9.364;2023-03-01T04:41:43;43.57;;;25.20;;
173;SDS011;75;48.784;9.364;2023-03-01T04:44:27;43.70;;;24.90;;
173;SDS011;75;48.784;9.364;2023-03-01T04:47:12;47.73;;;24.73;;
173;SDS011;75;48.784;9.364;2023-03-01T04:49:57;41.63;;;25.30;;
173;SDS011;75;48.784;9.364;2023-03-01T04:52:42;47.50;;;25.50;;
173;SDS011;75;48.784;9.364;2023-03-01T04:55:27;43.67;;;25.83;;
173;SDS011;75;48.784;9.364;2023-03-01T04:58:13;43.80;;;25.97;;
173;SDS011;75;48.784;9.364;2023-03-01T05:00:57;49.63;;;28.00;;
173;SDS011;75;48.784;9.364;2023-03-01T05:03:51;48.10;;;26.37;;
173;SDS011;75;48.784;9.364;2023-03-01T05:06:36;51.70;;;28.27;;
173;SDS011;75;48.784;9.364;2023-03-01T05:09:21;44.73;;;26.13;;
173;SDS011;75;48.784;9.364;2023-03-01T05:12:05;44.27;;;26.43;;
173;SDS011;75;48.784;9.364;2023-03-01T05:14:50;48.40;;;27.07;;
173;SDS011;75;48.784;9.364;2023-03-01T05:17:34;41.57;;;24.83;;
173;SDS011;75;48.784;9.364;2023-03-01T05:20:19;48.93;;;26.40;;
173;SDS011;75;48.784;9.364;2023-03-01T05:23:07;49.40;;;27.60;;
173;SDS011;75;48.784;9.364;2023-03-01T05:25:52;47.60;;;27.00;;
173;SDS011;75;48.784;9.364;2023-03-01T05:28:37;45.07;;;26.17;;
173;SDS011;75;48.784;9.364;2023-03-01T05:31:22;46.37;;;27.03;;
173;SDS011;75;48.784;9.364;2023-03-01T05:34:06;43.77;;;25.53;;
173;SDS011;75;48.784;9.364;2023-03-01T05:36:52;45.30;;;27.03;;
173;SDS011;75;48.784;9.364;2023-03-01T05:39:37;44.60;;;25.90;;
173;SDS011;75;48.784;9.364;2023-03-01T05:42:22;48.63;;;26.90;;
173;SDS011;75;48.784;9.364;2023-03-01T05:45:06;48.37;;;27.10;;
173;SDS011;75;48.784;9.364;2023-03-01T05:47:53;45.00;;;26.27;;
173;SDS011;75;48.784;9.364;2023-03-01T05:50:40;51.00;;;28.90;;
173;SDS011;75;48.784;9.364;2023-03-01T05:53:25;47.30;;;26.27;;
173;SDS011;75;48.784;9.364;2023-03-01T05:56:10;47.93;;;26.40;;
173;SDS011;75;48.784;9.364;2023-03-01T05:58:55;47.17;;;26.03;;
173;SDS011;75;48.784;9.364;2023-03-01T06:01:40;43.67;;;26.20;;
173;SDS011;75;48.784;9.364;2023-03-01T06:04:24;47.17;;;27.67;;
173;SDS011;75;48.784;9.364;2023-03-01T06:07:09;46.40;;;26.87;;
173;SDS011;75;48.784;9.364;2023-03-01T06:09:53;51.33;;;28.80;;
173;SDS011;75;48.784;9.364;2023-03-01T06:12:38;59.10;;;29.63;;
173;SDS011;75;48.784;9.364;2023-03-01T06:15:24;45.50;;;26.83;;
173;SDS011;75;48.784;9.364;2023-03-01T06:18:09;44.70;;;26.27;;
173;SDS011;75;48.784;9.364;2023-03-01T06:20:54;46.93;;;26.97;;
173;SDS011;75;48.784;9.364;2023-03-01T06:23:39;46.60;;;26.90;;
173;SDS011;75;48.784;9.364;2023-03-01T06:26:24;47.80;;;26.37;;
173;SDS011;75;48.784;9.364;2023-03-01T06:29:09;52.17;;;30.57;;
173;SDS011;75;48.784;9.364;2023-03-01T06:31:53;51.17;;;30.20;;
173;SDS011;75;48.784;9.364;2023-03-01T06:34:38;46.93;;;27.63;;
173;SDS011;75;48.784;9.364;2023-03-01T06:37:23;54.93;;;31.90;;
173;SDS011;75;48.784;9.364;2023-03-01T06:40:08;52.20;;;28.83;;
173;SDS011;75;48.784;9.364;2023-03-01T06:42:55;52.47;;;28.73;;
173;SDS011;75;48.784;9.364;2023-03-01T06:45:39;53.47;;;28.03;;
173;SDS011;75;48.784;9.364;2023-03-01T06:48:25;64.87;;;37.80;;
173;SDS011;75;48.784;9.364;2023-03-01T06:51:10;59.90;;;32.23;;
173;SDS011;75;48.784;9.364;2023-03-01T06:53:55;54.87;;;29.40;;
173;SDS011;75;48.784;9.364;2023-03-01T06:56:39;54.23;;;29.83;;
173;SDS011;75;48.784;9.364;2023-03-01T06:59:24;56.93;;;31.37;;
173;SDS011;75;48.784;9.364;2023-03-01T07:02:12;58.53;;;30.63;;
173;SDS011;75;48.784;9.364;2023-03-01T07:04:57;55.40;;;30.20;;
173;SDS011;75;48.784;9.364;2023-03-01T07:07:41;53.40;;;29.07;;
173;SDS011;75;48.784;9.364;2023-03-01T07:10:26;52.47;;;29.20;;
173;SDS011;75;48.784;9.364;2023-03-01T07:13:10;52.63;;;29.07;;
173;SDS011;75;48.784;9.364;2023-03-01T07:15:55;57.83;;;30.73;;
173;SDS011;75;48.784;9.364;2023-03-01T07:18:40;52.27;;;30.13;;
173;SDS011;75;48.784;9.364;2023-03-01T07:21:25;48.63;;;28.00;;
173;SDS011;75;48.784;9.364;2023-03-01T07:24:10;56.80;;;29.90;;
173;SDS011;75;48.784;9.364;2023-03-01T07:26:54;54.60;;;30.23;;
173;SDS011;75;48.784;9.364;2023-03-01T07:29:39;49.67;;;28.17;;
173;SDS011;75;48.784;9.364;2023-03-01T07:32:24;48.40;;;27.87;;
173;SDS011;75;48.784;9.364;2023-03-01T07:35:09;49.80;;;27.90;;
173;SDS011;75;48.784;9.364;2023-03-01T07:37:53;48.23;;;27.97;;
173;SDS011;75;48.784;9.364;2023-03-01T07:40:38;49.80;;;27.47;;
173;SDS011;75;48.784;9.364;2023-03-01T07:43:22;47.50;;;28.10;;
173;SDS011;75;48.784;9.364;2023-03-01T07:46:07;48.80;;;27.93;;
173;SDS011;75;48.784;9.364;2023-03-01T07:48:52;48.70;;;27.80;;
173;SDS011;75;48.784;9.364;2023-03-01T07:51:37;52.00;;;26.93;;
173;SDS011;75;48.784;9.364;2023-03-01T07:54:22;47.07;;;26.90;;
173;SDS011;75;48.784;9.364;2023-03-01T07:57:06;47.27;;;27.90;;
173;SDS011;75;48.784;9.364;2023-03-01T07:59:51;50.93;;;28.43;;
173;SDS011;75;48.784;9.364;2023-03-01T08:02:35;46.83;;;27.27;;
173;SDS011;75;48.784;9.364;2023-03-01T08:05:21;49.67;;;28.43;;
173;SDS011;75;48.784;9.364;2023-03-01T08:08:06;49.20;;;27.80;;
173;SDS011;75;48.784;9.364;2023-03-01T08:10:50;47.27;;;27.93;;
173;SDS011;75;48.784;9.364;2023-03-01T08:13:35;50.73;;;27.43;;
173;SDS011;75;48.784;9.364;2023-03-01T08:16:20;48.10;;;28.17;;
173;SDS011;75;48.784;9.364;2023-03-01T08:19:05;48.30;;;28.17;;
173;SDS011;75;48.784;9.364;2023-03-01T08:21:51;48.00;;;27.27;;
173;SDS011;75;48.784;9.364;2023-03-01T08:24:35;46.13;;;27.40;;
173;SDS011;75;48.784;9.364;2023-03-01T08:27:20;49.87;;;26.70;;
173;SDS011;75;48.784;9.364;2023-03-01T08:30:04;47.97;;;27.43;;
173;SDS011;75;48.784;9.364;2023-03-01T08:32:50;45.70;;;26.57;;
173;SDS011;75;48.784;9.364;2023-03-01T08:35:34;45.53;;;26.73;;
173;SDS011;75;48.784;9.364;2023-03-01T08:38:19;48.73;;;27.87;;
173;SDS011;75;48.784;9.364;2023-03-01T08:41:04;46.90;;;27.00;;
173;SDS011;75;48.784;9.364;2023-03-01T08:43:48;47.43;;;27.03;;
173;SDS011;75;48.784;9.364;2023-03-01T08:46:35;47.60;;;26.93;;
173;SDS011;75;48.784;9.364;2023-03-01T08:49:20;48.73;;;27.40;;
173;SDS011;75;48.784;9.364;2023-03-01T08:52:04;45.90;;;26.47;;
173;SDS011;75;48.784;9.364;2023-03-01T08:54:49;45.70;;;25.53;;
173;SDS011;75;48.784;9.364;2023-03-01T08:57:34;48.87;;;27.70;;
173;SDS011;75;48.784;9.364;2023-03-01T09:00:18;45.33;;;26.43;;
173;SDS011;75;48.784;9.364;2023-03-01T09:03:03;47.23;;;27.10;;
173;SDS011;75;48.784;9.364;2023-03-01T09:05:48;46.20;;;26.93;;
173;SDS011;75;48.784;9.364;2023-03-01T09:08:34;42.90;;;24.87;;
173;SDS011;75;48.784;9.364;2023-03-01T09:11:20;48.00;;;25.40;;
173;SDS011;75;48.784;9.364;2023-03-01T09:14:05;47.87;;;25.80;;
173;SDS011;75;48.784;9.364;2023-03-01T09:16:50;44.43;;;26.10;;
173;SDS011;75;48.784;9.364;2023-03-01T09:19:35;47.60;;;27.00;;
173;SDS011;75;48.784;9.364;2023-03-01T09:22:20;45.93;;;27.07;;
173;SDS011;75;48.784;9.364;2023-03-01T09:25:04;43.47;;;26.37;;
173;SDS011;75;48.784;9.364;2023-03-01T09:27:53;47.67;;;26.93;;
173;SDS011;75;48.784;9.364;2023-03-01T09:30:38;44.37;;;26.53;;
173;SDS011;75;48.784;9.364;2023-03-01T09:33:23;45.70;;;26.80;;
173;SDS011;75;48.784;9.364;2023-03-01T09:36:10;45.33;;;26.43;;
173;SDS011;75;48.784;9.364;2023-03-01T09:38:55;40.50;;;23.77;;
173;SDS011;75;48.784;9.364;2023-03-01T09:47:23;42.27;;;24.57;;
173;SDS011;75;48.784;9.364;2023-03-01T09:50:10;46.27;;;24.57;;
173;SDS011;75;48.784;9.364;2023-03-01T09:58:50;46.47;;;24.63;;
173;SDS011;75;48.784;9.364;2023-03-01T10:01:59;43.90;;;25.27;;
173;SDS011;75;48.784;9.364;2023-03-01T10:04:45;55.80;;;28.77;;
173;SDS011;75;48.784;9.364;2023-03-01T10:10:29;41.70;;;24.77;;
173;SDS011;75;48.784;9.364;2023-03-01T10:13:21;40.47;;;24.10;;
173;SDS011;75;48.784;9.364;2023-03-01T10:16:13;42.60;;;24.80;;
173;SDS011;75;48.784;9.364;2023-03-01T10:19:00;47.57;;;25.60;;
173;SDS011;75;48.784;9.364;2023-03-01T10:21:46;42.97;;;25.50;;
173;SDS011;75;48.784;9.364;2023-03-01T10:24:32;43.03;;;24.70;;
173;SDS011;75;48.784;9.364;2023-03-01T10:27:20;43.20;;;24.27;;
173;SDS011;75;48.784;9.364;2023-03-01T10:32:52;40.77;;;23.93;;
173;SDS011;75;48.784;9.364;2023-03-01T10:35:37;42.90;;;25.07;;
173;SDS011;75;48.784;9.364;2023-03-01T10:38:24;46.20;;;24.90;;
173;SDS011;75;48.784;9.364;2023-03-01T10:41:09;40.23;;;23.43;;
173;SDS011;75;48.784;9.364;2023-03-01T10:43:57;41.07;;;24.63;;
173;SDS011;75;48.784;9.364;2023-03-01T10:46:43;42.37;;;23.13;;
173;SDS011;75;48.784;9.364;2023-03-01T10:49:28;44.10;;;24.20;;
173;SDS011;75;48.784;9.364;2023-03-01T10:52:17;44.90;;;24.57;;
173;SDS011;75;48.784;9.364;2023-03-01T11:06:57;39.77;;;23.50;;
173;SDS011;75;48.784;9.364;2023-03-01T11:09:42;41.87;;;24.43;;
173;SDS011;75;48.784;9.364;2023-03-01T11:12:27;41.00;;;23.53;;
173;SDS011;75;48.784;9.364;2023-03-01T11:15:20;43.50;;;24.30;;
173;SDS011;75;48.784;9.364;2023-03-01T11:18:05;39.40;;;23.73;;
173;SDS011;75;48.784;9.364;2023-03-01T11:21:01;41.87;;;22.27;;
173;SDS011;75;48.784;9.364;2023-03-01T11:23:47;40.07;;;23.40;;
173;SDS011;75;48.784;9.364;2023-03-01T11:26:32;36.50;;;21.30;;
173;SDS011;75;48.784;9.364;2023-03-01T11:29:30;37.83;;;22.57;;
173;SDS011;75;48.784;9.364;2023-03-01T11:32:16;36.70;;;21.30;;
173;SDS011;75;48.784;9.364;2023-03-01T11:35:10;36.27;;;21.40;;
173;SDS011;75;48.784;9.364;2023-03-01T11:40:52;40.97;;;22.40;;
173;SDS011;75;48.784;9.364;2023-03-01T11:43:45;37.10;;;21.80;;
173;SDS011;75;48.784;9.364;2023-03-01T11:46:46;35.07;;;21.30;;
173;SDS011;75;48.784;9.364;2023-03-01T11:58:14;38.67;;;22.13;;
173;SDS011;75;48.784;9.364;2023-03-01T12:06:52;36.83;;;21.40;;
173;SDS011;75;48.784;9.364;2023-03-01T12:09:57;37.47;;;21.63;;
173;SDS011;75;48.784;9.364;2023-03-01T12:12:47;36.50;;;20.70;;
173;SDS011;75;48.784;9.364;2023-03-01T12:18:51;41.43;;;22.17;;
173;SDS011;75;48.784;9.364;2023-03-01T12:24:26;35.00;;;21.23;;
173;SDS011;75;48.784;9.364;2023-03-01T12:27:23;40.00;;;22.67;;
173;SDS011;75;48.784;9.364;2023-03-01T12:33:38;37.37;;;21.40;;
173;SDS011;75;48.784;9.364;2023-03-01T12:51:01;35.10;;;20.37;;
173;SDS011;75;48.784;9.364;2023-03-01T12:53:48;36.17;;;21.80;;
173;SDS011;75;48.784;9.364;2023-03-01T12:56:34;35.10;;;21.20;;
173;SDS011;75;48.784;9.364;2023-03-01T12:59:39;37.63;;;21.13;;
173;SDS011;75;48.784;9.364;2023-03-01T13:02:26;34.67;;;20.90;;
173;SDS011;75;48.784;9.364;2023-03-01T13:08:19;35.80;;;21.30;;
173;SDS011;75;48.784;9.364;2023-03-01T13:11:06;39.70;;;20.50;;
173;SDS011;75;48.784;9.364;2023-03-01T13:16:58;33.77;;;20.60;;
173;SDS011;75;48.784;9.364;2023-03-01T13:19:43;35.87;;;19.70;;
173;SDS011;75;48.784;9.364;2023-03-01T13:22:39;33.70;;;19.23;;
173;SDS011;75;48.784;9.364;2023-03-01T13:25:25;33.47;;;19.53;;
173;SDS011;75;48.784;9.364;2023-03-01T13:34:02;31.60;;;19.10;;
173;SDS011;75;48.784;9.364;2023-03-01T13:36:51;34.97;;;19.93;;
173;SDS011;75;48.784;9.364;2023-03-01T13:39:39;32.37;;;19.23;;
173;SDS011;75;48.784;9.364;2023-03-01T13:42:35;33.20;;;18.73;;
173;SDS011;75;48.784;9.364;2023-03-01T13:45:39;29.07;;;17.93;;
173;SDS011;75;48.784;9.364;2023-03-01T13:48:26;32.70;;;18.37;;
173;SDS011;75;48.784;9.364;2023-03-01T13:51:12;33.50;;;19.17;;
173;SDS011;75;48.784;9.364;2023-03-01T13:53:57;33.03;;;19.17;;
173;SDS011;75;48.784;9.364;2023-03-01T13:56:42;30.90;;;19.00;;
173;SDS011;75;48.784;9.364;2023-03-01T13:59:27;36.40;;;20.10;;
173;SDS011;75;48.784;9.364;2023-03-01T14:02:14;35.50;;;19.50;;
173;SDS011;75;48.784;9.364;2023-03-01T14:04:59;35.53;;;20.00;;
173;SDS011;75;48.784;9.364;2023-03-01T14:07:50;36.10;;;20.27;;
173;SDS011;75;48.784;9.364;2023-03-01T14:10:39;37.07;;;21.27;;
173;SDS011;75;48.784;9.364;2023-03-01T14:13:32;35.47;;;21.07;;
173;SDS011;75;48.784;9.364;2023-03-01T14:16:35;35.50;;;21.77;;
173;SDS011;75;48.784;9.364;2023-03-01T14:19:28;36.37;;;21.27;;
173;SDS011;75;48.784;9.364;2023-03-01T14:22:21;38.60;;;22.03;;
173;SDS011;75;48.784;9.364;2023-03-01T14:25:53;43.10;;;23.70;;
173;SDS011;75;48.784;9.364;2023-03-01T14:28:16;38.77;;;21.43;;
173;SDS011;75;48.784;9.364;2023-03-01T14:31:02;48.73;;;23.93;;
173;SDS011;75;48.784;9.364;2023-03-01T14:33:46;39.57;;;23.33;;
173;SDS011;75;48.784;9.364;2023-03-01T14:36:38;38.07;;;21.03;;
173;SDS011;75;48.784;9.364;2023-03-01T14:39:24;37.13;;;22.17;;
173;SDS011;75;48.784;9.364;2023-03-01T14:42:09;39.80;;;23.03;;
173;SDS011;75;48.784;9.364;2023-03-01T14:44:55;45.97;;;24.50;;
173;SDS011;75;48.784;9.364;2023-03-01T14:47:41;37.87;;;21.57;;
173;SDS011;75;48.784;9.364;2023-03-01T14:50:29;40.47;;;21.83;;
173;SDS011;75;48.784;9.364;2023-03-01T14:53:19;39.13;;;21.07;;
173;SDS011;75;48.784;9.364;2023-03-01T14:56:04;37.83;;;21.03;;
173;SDS011;75;48.784;9.364;2023-03-01T14:58:53;33.30;;;19.03;;
173;SDS011;75;48.784;9.364;2023-03-01T15:01:39;35.77;;;20.13;;
173;SDS011;75;48.784;9.364;2023-03-01T15:04:25;33.50;;;19.40;;
173;SDS011;75;48.784;9.364;2023-03-01T15:07:11;36.87;;;19.90;;
173;SDS011;75;48.784;9.364;2023-03-01T15:09:57;34.50;;;19.30;;
173;SDS011;75;48.784;9.364;2023-03-01T15:12:43;31.53;;;18.60;;
173;SDS011;75;48.784;9.364;2023-03-01T15:18:20;36.60;;;20.97;;
173;SDS011;75;48.784;9.364;2023-03-01T15:21:13;34.30;;;20.40;;
173;SDS011;75;48.784;9.364;2023-03-01T15:24:19;38.43;;;21.97;;
173;SDS011;75;48.784;9.364;2023-03-01T15:27:05;36.93;;;21.10;;
173;SDS011;75;48.784;9.364;2023-03-01T15:29:52;41.37;;;22.63;;
173;SDS011;75;48.784;9.364;2023-03-01T15:32:38;37.00;;;21.10;;
173;SDS011;75;48.784;9.364;2023-03-01T15:35:37;36.13;;;20.97;;
173;SDS011;75;48.784;9.364;2023-03-01T15:38:28;39.43;;;22.13;;
173;SDS011;75;48.784;9.364;2023-03-01T15:41:30;37.10;;;22.57;;
173;SDS011;75;48.784;9.364;2023-03-01T15:44:26;40.20;;;22.00;;
173;SDS011;75;48.784;9.364;2023-03-01T15:47:27;38.47;;;21.70;;
173;SDS011;75;48.784;9.364;2023-03-01T15:50:16;40.47;;;21.60;;
173;SDS011;75;48.784;9.364;2023-03-01T15:53:10;40.10;;;22.43;;
173;SDS011;75;48.784;9.364;2023-03-01T15:55:56;40.57;;;22.90;;
173;SDS011;75;48.784;9.364;2023-03-01T15:58:41;39.30;;;23.00;;
173;SDS011;75;48.784;9.364;2023-03-01T16:01:25;44.33;;;22.53;;
173;SDS011;75;48.784;9.364;2023-03-01T16:04:11;40.23;;;22.70;;
173;SDS011;75;48.784;9.364;2023-03-01T16:06:59;39.30;;;21.63;;
173;SDS011;75;48.784;9.364;2023-03-01T16:09:44;41.23;;;22.83;;
173;SDS011;75;48.784;9.364;2023-03-01T16:12:29;43.00;;;23.23;;
173;SDS011;75;48.784;9.364;2023-03-01T16:15:18;39.93;;;23.87;;
173;SDS011;75;48.784;9.364;2023-03-01T16:18:03;42.27;;;22.87;;
173;SDS011;75;48.784;9.364;2023-03-01T16:20:54;41.40;;;22.60;;
173;SDS011;75;48.784;9.364;2023-03-01T16:23:38;45.90;;;25.07;;
173;SDS011;75;48.784;9.364;2023-03-01T16:26:23;40.03;;;23.10;;
173;SDS011;75;48.784;9.364;2023-03-01T16:29:08;44.90;;;24.20;;
173;SDS011;75;48.784;9.364;2023-03-01T16:31:52;48.77;;;24.13;;
173;SDS011;75;48.784;9.364;2023-03-01T16:34:37;43.17;;;23.90;;
173;SDS011;75;48.784;9.364;2023-03-01T16:37:22;40.60;;;22.13;;
173;SDS011;75;48.784;9.364;2023-03-01T16:40:15;42.80;;;23.10;;
173;SDS011;75;48.784;9.364;2023-03-01T16:43:00;37.00;;;21.70;;
173;SDS011;75;48.784;9.364;2023-03-01T16:45:45;37.50;;;21.63;;
173;SDS011;75;48.784;9.364;2023-03-01T16:48:30;38.63;;;21.23;;
173;SDS011;75;48.784;9.364;2023-03-01T16:51:15;40.77;;;21.33;;
173;SDS011;75;48.784;9.364;2023-03-01T16:54:00;36.53;;;20.80;;
173;SDS011;75;48.784;9.364;2023-03-01T16:56:44;36.83;;;21.80;;
173;SDS011;75;48.784;9.364;2023-03-01T16:59:29;42.53;;;22.70;;
173;SDS011;75;48.784;9.364;2023-03-01T17:02:14;43.33;;;23.37;;
173;SDS011;75;48.784;9.364;2023-03-01T17:05:03;39.43;;;21.30;;
173;SDS011;75;48.784;9.364;2023-03-01T17:07:47;38.13;;;22.90;;
173;SDS011;75;48.784;9.364;2023-03-01T17:10:32;41.07;;;22.50;;
173;SDS011;75;48.784;9.364;2023-03-01T17:13:17;40.23;;;23.37;;
173;SDS011;75;48.784;9.364;2023-03-01T17:16:03;38.90;;;22.30;;
173;SDS011;75;48.784;9.364;2023-03-01T17:18:48;41.50;;;24.37;;
173;SDS011;75;48.784;9.364;2023-03-01T17:21:33;47.73;;;26.80;;
173;SDS011;75;48.784;9.364;2023-03-01T17:24:17;46.30;;;26.50;;
173;SDS011;75;48.784;9.364;2023-03-01T17:27:02;49.77;;;28.13;;
173;SDS011;75;48.784;9.364;2023-03-01T17:29:47;78.47;;;50.73;;
173;SDS011;75;48.784;9.364;2023-03-01T17:32:31;63.40;;;38.17;;
173;SDS011;75;48.784;9.364;2023-03-01T17:35:16;51.60;;;29.90;;
173;SDS011;75;48.784;9.364;2023-03-01T17:38:01;50.10;;;30.30;;
173;SDS011;75;48.784;9.364;2023-03-01T17:40:45;47.10;;;28.83;;
173;SDS011;75;48.784;9.364;2023-03-01T17:43:30;52.70;;;30.73;;
173;SDS011;75;48.784;9.364;2023-03-01T17:46:17;66.40;;;35.27;;
173;SDS011;75;48.784;9.364;2023-03-01T17:49:02;71.23;;;39.17;;
173;SDS011;75;48.784;9.364;2023-03-01T17:51:47;64.10;;;36.23;;
173;SDS011;75;48.784;9.364;2023-03-01T17:54:31;59.23;;;33.33;;
173;SDS011;75;48.784;9.364;2023-03-01T17:57:16;62.73;;;35.30;;
173;SDS011;75;48.784;9.364;2023-03-01T18:00:01;57.70;;;32.30;;
173;SDS011;75;48.784;9.364;2023-03-01T18:02:47;55.77;;;30.03;;
173;SDS011;75;48.784;9.364;2023-03-01T18:05:35;165.97;;;73.47;;
173;SDS011;75;48.784;9.364;2023-03-01T18:08:22;74.63;;;37.27;;
173;SDS011;75;48.784;9.364;2023-03-01T18:11:07;85.20;;;45.50;;
173;SDS011;75;48.784;9.364;2023-03-01T18:13:52;68.53;;;35.70;;
173;SDS011;75;48.784;9.364;2023-03-01T18:16:37;59.40;;;35.20;;
173;SDS011;75;48.784;9.364;2023-03-01T18:19:22;55.73;;;31.80;;
173;SDS011;75;48.784;9.364;2023-03-01T18:22:08;50.60;;;28.90;;
173;SDS011;75;48.784;9.364;2023-03-01T18:24:53;54.23;;;31.00;;
173;SDS011;75;48.784;9.364;2023-03-01T18:27:38;63.40;;;37.20;;
173;SDS011;75;48.784;9.364;2023-03-01T18:30:23;62.47;;;35.27;;
173;SDS011;75;48.784;9.364;2023-03-01T18:33:07;66.33;;;37.10;;
173;SDS011;75;48.784;9.364;2023-03-01T18:35:52;57.17;;;34.03;;
173;SDS011;75;48.784;9.364;2023-03-01T18:38:36;57.67;;;32.93;;
173;SDS011;75;48.784;9.364;2023-03-01T18:41:22;52.53;;;32.10;;
173;SDS011;75;48.784;9.364;2023-03-01T18:44:07;55.77;;;32.70;;
173;SDS011;75;48.784;9.364;2023-03-01T18:46:51;55.90;;;31.60;;
173;SDS011;75;48.784;9.364;2023-03-01T18:49:39;53.87;;;29.50;;
173;SDS011;75;48.784;9.364;2023-03-01T18:52:23;51.13;;;29.33;;
173;SDS011;75;48.784;9.364;2023-03-01T18:55:08;57.40;;;36.20;;
173;SDS011;75;48.784;9.364;2023-03-01T18:57:53;55.77;;;31.60;;
173;SDS011;75;48.784;9.364;2023-03-01T19:00:38;67.93;;;37.07;;
173;SDS011;75;48.784;9.364;2023-03-01T19:03:23;56.83;;;31.70;;
173;SDS011;75;48.784;9.364;2023-03-01T19:06:07;52.60;;;29.53;;
173;SDS011;75;48.784;9.364;2023-03-01T19:08:52;55.30;;;31.40;;
173;SDS011;75;48.784;9.364;2023-03-01T19:11:37;60.53;;;32.40;;
173;SDS011;75;48.784;9.364;2023-03-01T19:14:23;66.40;;;35.67;;